Time;durP1;ratioP1;P1;durP2;ratioP2;P2;SDS_P1;SDS_P2;PMS_P1;PMS_P2;Temp;Humidity;BMP_temperature;BMP_pressure;BME280_temperature;BME280_humidity;BME280_pressure;Samples;Min_cycle;Max_cycle;Signal;HPM_P1;HPM_P2
2022/11/24 00:02:20;;;;;;;0.43;0.43;;;6.80;99.90;;;;;;5024468;28;20101;-88
2022/11/24 00:04:49;;;;;;;1.33;0.88;;;6.70;99.90;;;;;;5022270;28;20087;-88
2022/11/24 00:07:28;;;;;;;0.75;0.73;;;6.70;99.90;;;;;;5055087;28;20080;-88
2022/11/24 00:09:57;;;;;;;0.38;0.38;;;6.90;99.90;;;;;;5056442;28;20123;-88
2022/11/24 00:12:28;;;;;;;0.38;0.32;;;6.60;99.90;;;;;;5036718;28;20037;-88
2022/11/24 00:15:21;;;;;;;1.17;0.85;;;6.10;99.90;;;;;;5022490;28;20395;-88
2022/11/24 00:17:49;;;;;;;0.20;0.20;;;6.50;99.90;;;;;;5055381;28;20479;-87
2022/11/24 00:20:58;;;;;;;1.23;0.57;;;6.40;99.90;;;;;;5039589;28;20095;-88
2022/11/24 00:23:44;;;;;;;0.52;0.52;;;6.60;99.90;;;;;;5055436;28;20490;-88
2022/11/24 00:26:25;;;;;;;0.50;0.43;;;6.90;99.90;;;;;;5043367;28;20070;-87
2022/11/24 00:28:53;;;;;;;0.45;0.40;;;6.40;99.90;;;;;;5043474;28;20060;-87
2022/11/24 00:31:54;;;;;;;0.40;0.40;;;5.60;99.90;;;;;;5045295;28;20036;-87
2022/11/24 00:34:25;;;;;;;1.33;0.43;;;6.50;99.90;;;;;;5047285;28;20082;-87
2022/11/24 00:36:59;;;;;;;0.75;0.50;;;6.30;99.90;;;;;;5043756;28;20056;-88
2022/11/24 00:39:32;;;;;;;0.98;0.45;;;6.20;99.90;;;;;;5044512;28;20044;-87
2022/11/24 00:42:18;;;;;;;0.20;0.20;;;6.30;99.90;;;;;;5059932;28;20458;-90
2022/11/24 00:44:46;;;;;;;1.20;0.15;;;6.30;99.90;;;;;;5027519;28;20376;-88
2022/11/24 00:47:12;;;;;;;0.30;0.20;;;5.30;99.90;;;;;;5042505;28;20084;-87
2022/11/24 00:49:51;;;;;;;;;;;;;;;;;;;;;
2022/11/24 00:52:23;;;;;;;0.20;0.20;;;6.30;99.90;;;;;;5044480;28;20059;-87
2022/11/24 00:54:51;;;;;;;1.27;0.50;;;6.60;99.90;;;;;;5041240;28;20076;-87
2022/11/24 00:57:22;;;;;;;0.20;0.20;;;6.20;99.90;;;;;;5038631;28;20100;-88
2022/11/24 00:59:50;;;;;;;0.30;0.30;;;5.90;99.90;;;;;;5056711;28;20048;-88
2022/11/24 01:02:21;;;;;;;2.08;0.55;;;6.10;99.90;;;;;;5024037;28;20096;-87
2022/11/24 01:04:56;;;;;;;0.30;0.30;;;6.20;99.90;;;;;;5033797;28;20041;-88
2022/11/24 01:07:27;;;;;;;0.30;0.20;;;6.10;99.90;;;;;;5047832;28;20044;-87
2022/11/24 01:09:55;;;;;;;1.58;0.70;;;6.10;99.90;;;;;;5033963;28;20120;-87
2022/11/24 01:12:27;;;;;;;0.30;0.30;;;5.80;99.90;;;;;;5030028;28;20044;-87
2022/11/24 01:14:55;;;;;;;0.65;0.30;;;5.10;99.90;;;;;;5065374;28;20099;-88
2022/11/24 01:17:21;;;;;;;0.20;0.20;;;7.40;99.90;;;;;;5024312;28;20045;-87
2022/11/24 01:19:51;;;;;;;0.30;0.20;;;6.20;99.90;;;;;;5042289;28;20562;-91
2022/11/24 01:22:21;;;;;;;0.60;0.20;;;5.30;99.90;;;;;;5024109;28;20132;-87
2022/11/24 01:24:47;;;;;;;0.32;0.32;;;6.20;99.90;;;;;;5025137;28;20072;-87
2022/11/24 01:27:21;;;;;;;0.40;0.20;;;6.60;99.90;;;;;;5038553;28;20071;-88
2022/11/24 01:29:59;;;;;;;;;;;;;;;;;;;;;
2022/11/24 01:32:26;;;;;;;0.75;0.10;;;6.10;99.90;;;;;;5042891;28;20470;-87
2022/11/24 01:35:03;;;;;;;0.20;0.20;;;6.20;99.90;;;;;;5023446;28;20049;-88
2022/11/24 01:37:38;;;;;;;0.45;0.30;;;6.30;99.90;;;;;;5019944;28;20145;-89
2022/11/24 01:40:07;;;;;;;0.35;0.25;;;6.10;99.90;;;;;;5038784;28;20053;-87
2022/11/24 01:42:50;;;;;;;0.10;0.10;;;6.30;99.90;;;;;;5018938;28;20095;-87
2022/11/24 01:45:49;;;;;;;0.98;0.52;;;6.10;99.90;;;;;;5040271;28;20090;-87
2022/11/24 01:48:55;;;;;;;0.10;0.10;;;6.10;99.90;;;;;;5055480;28;20044;-87
2022/11/24 01:51:34;;;;;;;0.73;0.40;;;6.10;99.90;;;;;;5033328;28;20061;-87
2022/11/24 01:54:13;;;;;;;0.45;0.30;;;6.10;99.90;;;;;;5037484;28;20425;-88
2022/11/24 01:56:45;;;;;;;0.40;0.10;;;6.10;99.90;;;;;;5038849;28;20051;-88
2022/11/24 01:59:17;;;;;;;0.70;0.47;;;6.30;99.90;;;;;;5035693;28;20044;-87
2022/11/24 02:01:57;;;;;;;0.77;0.77;;;5.20;99.90;;;;;;5038202;28;20059;-87
2022/11/24 02:04:31;;;;;;;0.82;0.32;;;6.20;99.90;;;;;;5034276;28;20041;-87
2022/11/24 02:07:03;;;;;;;0.45;0.45;;;6.20;99.90;;;;;;5029923;28;20088;-88
2022/11/24 02:09:49;;;;;;;0.20;0.17;;;6.20;99.90;;;;;;5037738;28;20053;-88
2022/11/24 02:12:14;;;;;;;0.30;0.30;;;6.20;99.90;;;;;;5037311;28;20059;-88
2022/11/24 02:14:42;;;;;;;0.20;0.20;;;6.10;99.90;;;;;;5054029;28;20059;-87
2022/11/24 02:17:14;;;;;;;0.10;0.10;;;7.60;99.90;;;;;;5033471;28;20091;-88
2022/11/24 02:19:45;;;;;;;0.30;0.30;;;6.20;99.90;;;;;;5055017;28;20043;-87
2022/11/24 02:22:51;;;;;;;0.10;0.10;;;6.20;99.90;;;;;;5034174;28;20057;-87
2022/11/24 02:25:56;;;;;;;0.30;0.25;;;6.20;99.90;;;;;;5031753;28;20098;-88
2022/11/24 02:28:29;;;;;;;0.40;0.40;;;6.20;99.90;;;;;;5009831;28;20556;-88
2022/11/24 02:30:56;;;;;;;0.10;0.10;;;6.20;99.90;;;;;;5037723;28;20510;-89
2022/11/24 02:33:24;;;;;;;0.10;0.10;;;6.10;99.90;;;;;;5054183;28;20056;-89
2022/11/24 02:35:50;;;;;;;2.30;0.17;;;6.10;99.90;;;;;;5021729;28;20047;-87
2022/11/24 02:38:16;;;;;;;0.68;0.68;;;6.60;99.90;;;;;;5020924;28;20636;-87
2022/11/24 02:40:46;;;;;;;0.53;0.37;;;6.10;99.90;;;;;;5037357;28;20135;-87
2022/11/24 02:43:19;;;;;;;0.22;0.20;;;6.10;99.90;;;;;;5036851;28;20487;-89
2022/11/24 02:45:46;;;;;;;0.10;0.10;;;5.10;99.90;;;;;;5036311;28;20037;-88
2022/11/24 02:48:16;;;;;;;0.30;0.30;;;6.00;99.90;;;;;;5037044;28;20083;-87
2022/11/24 02:50:41;;;;;;;0.95;0.38;;;6.00;99.90;;;;;;5037816;28;20076;-87
2022/11/24 02:53:07;;;;;;;0.10;0.10;;;6.00;99.90;;;;;;5033921;28;20052;-89
2022/11/24 02:55:40;;;;;;;0.20;0.20;;;6.00;99.90;;;;;;5051188;28;20494;-87
2022/11/24 02:58:13;;;;;;;0.75;0.73;;;6.00;99.90;;;;;;5056541;28;20044;-87
2022/11/24 03:00:42;;;;;;;0.52;0.10;;;6.00;99.90;;;;;;5041373;28;20075;-87
2022/11/24 03:03:15;;;;;;;0.35;0.22;;;5.90;99.90;;;;;;5024899;28;20564;-90
2022/11/24 03:05:43;;;;;;;0.70;0.70;;;5.90;99.90;;;;;;5024745;28;20406;-87
2022/11/24 03:08:29;;;;;;;0.87;0.20;;;6.70;99.90;;;;;;5021107;28;20048;-88
2022/11/24 03:10:57;;;;;;;0.20;0.15;;;5.90;99.90;;;;;;5040530;28;20052;-87
2022/11/24 03:13:25;;;;;;;0.10;0.10;;;5.90;99.90;;;;;;5037047;28;20226;-87
2022/11/24 03:15:51;;;;;;;0.10;0.10;;;5.90;99.90;;;;;;5040762;28;20564;-87
2022/11/24 03:18:22;;;;;;;0.03;0.03;;;5.60;99.90;;;;;;5036726;28;20041;-89
2022/11/24 03:20:48;;;;;;;0.10;0.10;;;5.90;99.90;;;;;;5041274;28;20479;-87
2022/11/24 03:23:22;;;;;;;0.10;0.10;;;6.00;99.90;;;;;;5036980;28;20045;-87
2022/11/24 03:25:53;;;;;;;0.38;0.28;;;5.90;99.90;;;;;;5024566;28;20040;-87
2022/11/24 03:28:24;;;;;;;2.15;0.65;;;6.10;99.90;;;;;;5022153;28;20104;-87
2022/11/24 03:30:50;;;;;;;0.00;0.00;;;6.10;99.90;;;;;;5057147;28;20048;-87
2022/11/24 03:33:23;;;;;;;0.83;0.17;;;6.00;99.90;;;;;;5036694;28;20041;-87
2022/11/24 03:36:09;;;;;;;1.35;0.20;;;6.10;99.90;;;;;;5055602;28;20099;-87
2022/11/24 03:38:37;;;;;;;1.27;0.20;;;6.10;99.90;;;;;;5056377;28;20064;-87
2022/11/24 03:41:13;;;;;;;;;;;;;;;;;;;;;
2022/11/24 03:43:50;;;;;;;0.00;0.00;;;5.30;99.90;;;;;;5056606;28;20052;-87
2022/11/24 03:46:25;;;;;;;0.10;0.10;;;6.40;99.90;;;;;;5056038;28;20041;-87
2022/11/24 03:49:08;;;;;;;0.08;0.08;;;6.30;99.90;;;;;;5040219;28;20059;-87
2022/11/24 03:51:36;;;;;;;0.47;0.10;;;6.30;99.90;;;;;;5057318;28;20083;-87
2022/11/24 03:54:10;;;;;;;0.22;0.20;;;6.30;99.90;;;;;;5039295;28;20445;-86
2022/11/24 03:56:38;;;;;;;0.05;0.05;;;6.30;99.90;;;;;;5056461;28;20483;-87
2022/11/24 03:59:06;;;;;;;0.73;0.08;;;6.30;99.90;;;;;;5020738;28;20112;-87
2022/11/24 04:01:36;;;;;;;0.10;0.10;;;6.30;99.90;;;;;;5053076;28;20509;-88
2022/11/24 04:04:05;;;;;;;0.00;0.00;;;6.30;99.90;;;;;;5023372;28;20445;-87
2022/11/24 04:06:38;;;;;;;0.45;0.25;;;6.20;99.90;;;;;;5039386;28;20053;-87
2022/11/24 04:09:06;;;;;;;0.30;0.20;;;6.20;99.90;;;;;;5038778;28;20048;-88
2022/11/24 04:14:24;;;;;;;0.00;0.00;;;6.30;99.90;;;;;;5055725;28;20565;-88
2022/11/24 04:16:50;;;;;;;0.47;0.13;;;6.20;99.90;;;;;;5039289;28;20128;-87
2022/11/24 04:19:16;;;;;;;0.00;0.00;;;6.20;99.90;;;;;;5035379;28;20052;-87
2022/11/24 04:21:44;;;;;;;0.50;0.30;;;6.20;99.90;;;;;;5055928;28;20502;-87
2022/11/24 04:24:13;;;;;;;5.57;0.40;;;7.40;99.90;;;;;;5035672;28;20056;-87
2022/11/24 04:26:42;;;;;;;0.10;0.10;;;6.20;99.90;;;;;;5055917;28;20135;-87
2022/11/24 04:29:13;;;;;;;0.10;0.10;;;6.10;99.90;;;;;;5036055;28;20080;-87
2022/11/24 04:31:41;;;;;;;0.10;0.10;;;5.10;99.90;;;;;;5071150;28;20048;-87
2022/11/24 04:34:09;;;;;;;0.30;0.20;;;6.10;99.90;;;;;;5055831;28;20049;-87
2022/11/24 04:36:39;;;;;;;1.08;0.17;;;6.20;99.90;;;;;;5038046;28;20059;-87
2022/11/24 04:39:27;;;;;;;;;;;;;;;;;;;;;
2022/11/24 04:41:57;;;;;;;0.20;0.20;;;6.20;99.90;;;;;;5040499;28;20052;-87
2022/11/24 04:44:33;;;;;;;;;;;;;;;;;;;;;
2022/11/24 04:47:06;;;;;;;0.00;0.00;;;6.20;99.90;;;;;;5056068;28;20055;-87
2022/11/24 04:49:34;;;;;;;0.00;0.00;;;6.10;99.90;;;;;;5035190;28;20049;-88
2022/11/24 04:52:00;;;;;;;0.00;0.00;;;6.10;99.90;;;;;;5038571;28;20090;-87
2022/11/24 04:54:26;;;;;;;0.10;0.10;;;6.00;99.90;;;;;;5055954;28;20048;-87
2022/11/24 04:56:54;;;;;;;0.10;0.10;;;6.10;99.90;;;;;;5039884;28;20399;-87
2022/11/24 04:59:23;;;;;;;0.45;0.10;;;5.90;99.90;;;;;;5035913;28;20053;-88
2022/11/24 05:01:51;;;;;;;1.33;0.20;;;6.10;99.90;;;;;;5055688;28;20495;-86
2022/11/24 05:04:20;;;;;;;0.05;0.05;;;5.50;99.90;;;;;;5035275;28;20135;-88
2022/11/24 05:06:46;;;;;;;0.10;0.10;;;5.30;99.90;;;;;;5038773;28;20044;-87
2022/11/24 05:09:25;;;;;;;0.88;0.57;;;7.10;99.90;;;;;;5035962;28;20044;-87
2022/11/24 05:11:53;;;;;;;0.05;0.05;;;6.00;99.90;;;;;;5022967;28;20044;-87
2022/11/24 05:14:19;;;;;;;0.00;0.00;;;5.90;99.90;;;;;;5055432;28;20052;-88
2022/11/24 05:16:47;;;;;;;0.10;0.10;;;5.90;99.90;;;;;;5037125;28;20427;-87
2022/11/24 05:19:16;;;;;;;0.22;0.03;;;5.90;99.90;;;;;;5055448;28;20052;-87
2022/11/24 05:21:46;;;;;;;0.70;0.28;;;6.00;99.90;;;;;;5038123;28;20052;-87
2022/11/24 05:24:17;;;;;;;0.10;0.10;;;5.20;99.90;;;;;;5019385;28;20102;-88
2022/11/24 05:26:46;;;;;;;0.00;0.00;;;5.80;99.90;;;;;;5038383;28;20086;-87
2022/11/24 05:29:28;;;;;;;0.00;0.00;;;7.10;99.90;;;;;;5055290;28;20159;-87
2022/11/24 05:31:56;;;;;;;0.05;0.05;;;5.40;99.90;;;;;;5038227;28;20055;-87
2022/11/24 05:34:31;;;;;;;0.20;0.20;;;5.80;99.90;;;;;;5055229;28;20043;-90
2022/11/24 05:37:01;;;;;;;0.30;0.10;;;5.70;99.90;;;;;;5023093;28;20110;-87
2022/11/24 05:39:39;;;;;;;0.03;0.03;;;7.00;99.90;;;;;;5039361;28;20539;-87
2022/11/24 05:45:02;;;;;;;;;;;;;;;;;;;;;
2022/11/24 05:47:28;;;;;;;0.05;0.05;;;5.60;99.90;;;;;;5039659;28;20044;-88
2022/11/24 05:49:57;;;;;;;0.00;0.00;;;5.90;99.90;;;;;;5054992;28;20127;-87
2022/11/24 05:52:26;;;;;;;0.15;0.13;;;5.50;99.90;;;;;;5055017;28;20088;-90
2022/11/24 05:55:01;;;;;;;;;;;;;;;;;;;;;
2022/11/24 05:57:32;;;;;;;0.10;0.10;;;5.50;99.90;;;;;;5039180;28;20406;-87
2022/11/24 06:00:01;;;;;;;0.13;0.10;;;6.80;99.90;;;;;;5022216;28;20053;-87
2022/11/24 06:02:29;;;;;;;0.40;0.05;;;5.40;99.90;;;;;;5054583;28;20139;-88
2022/11/24 06:05:00;;;;;;;0.00;0.00;;;6.10;99.90;;;;;;5021426;28;20094;-87
2022/11/24 06:07:29;;;;;;;0.20;0.20;;;5.50;99.90;;;;;;5018340;28;20056;-90
2022/11/24 06:09:55;;;;;;;1.65;0.63;;;6.20;99.90;;;;;;5053657;28;20447;-87
2022/11/24 06:12:20;;;;;;;0.20;0.07;;;5.40;99.90;;;;;;5038180;28;20048;-87
2022/11/24 06:14:52;;;;;;;0.40;0.40;;;5.50;99.90;;;;;;5053851;28;20052;-87
2022/11/24 06:17:28;;;;;;;0.10;0.10;;;6.30;99.90;;;;;;5054962;28;20040;-87
2022/11/24 06:19:54;;;;;;;0.00;0.00;;;5.40;99.90;;;;;;5054083;28;20053;-88
2022/11/24 06:22:28;;;;;;;0.00;0.00;;;5.40;99.90;;;;;;5021585;28;20041;-87
2022/11/24 06:24:59;;;;;;;0.10;0.10;;;5.30;99.90;;;;;;5037889;28;20047;-87
2022/11/24 06:27:27;;;;;;;0.20;0.20;;;5.40;99.90;;;;;;5034831;28;20049;-87
2022/11/24 06:29:55;;;;;;;0.20;0.10;;;5.90;99.90;;;;;;5054252;28;20056;-87
2022/11/24 06:32:31;;;;;;;;;;;;;;;;;;;;;
2022/11/24 06:35:11;;;;;;;0.00;0.00;;;6.60;99.90;;;;;;5038152;28;20119;-88
2022/11/24 06:37:40;;;;;;;0.08;0.00;;;4.90;99.90;;;;;;5057978;28;20059;-87
2022/11/24 06:40:13;;;;;;;0.00;0.00;;;5.40;99.90;;;;;;5042099;28;20049;-87
2022/11/24 06:42:41;;;;;;;0.00;0.00;;;5.40;99.90;;;;;;5042127;28;20041;-87
2022/11/24 06:45:17;;;;;;;0.10;0.10;;;5.70;99.90;;;;;;5057809;28;20055;-87
2022/11/24 06:47:46;;;;;;;0.03;0.03;;;5.40;99.90;;;;;;5058292;28;20052;-86
2022/11/24 06:50:20;;;;;;;0.00;0.00;;;5.40;99.90;;;;;;5041601;28;20487;-86
2022/11/24 06:53:03;;;;;;;;;;;;;;;;;;;;;
2022/11/24 06:55:48;;;;;;;;;;;;;;;;;;;;;
2022/11/24 06:58:16;;;;;;;0.00;0.00;;;4.70;99.90;;;;;;5043974;28;20048;-86
2022/11/24 07:00:42;;;;;;;1.08;0.10;;;5.40;99.90;;;;;;5040912;28;20044;-87
2022/11/24 07:03:17;;;;;;;0.10;0.10;;;5.30;99.90;;;;;;5038642;28;20132;-87
2022/11/24 07:05:46;;;;;;;0.20;0.20;;;5.40;99.90;;;;;;5057743;28;20513;-87
2022/11/24 07:08:14;;;;;;;0.10;0.08;;;5.40;99.90;;;;;;5058505;28;20110;-87
2022/11/24 07:10:40;;;;;;;2.40;0.32;;;5.40;99.90;;;;;;5039310;28;20052;-87
2022/11/24 07:13:07;;;;;;;0.17;0.10;;;5.40;99.90;;;;;;5041450;28;20473;-87
2022/11/24 07:15:40;;;;;;;0.10;0.10;;;5.40;99.90;;;;;;5041393;28;20051;-86
2022/11/24 07:18:19;;;;;;;0.03;0.03;;;6.50;99.90;;;;;;5026041;28;20047;-87
2022/11/24 07:20:47;;;;;;;0.00;0.00;;;5.40;99.90;;;;;;5057766;28;20561;-87
2022/11/24 07:23:31;;;;;;;0.00;0.00;;;5.40;99.90;;;;;;5041491;28;20074;-87
2022/11/24 07:25:58;;;;;;;0.10;0.10;;;5.40;99.90;;;;;;5025822;28;20040;-86
2022/11/24 07:28:24;;;;;;;2.03;0.35;;;5.50;99.90;;;;;;5042022;28;20059;-89
2022/11/24 07:30:49;;;;;;;0.00;0.00;;;5.50;99.90;;;;;;5024017;28;20049;-86
2022/11/24 07:33:24;;;;;;;0.17;0.17;;;4.50;99.90;;;;;;5040990;28;20044;-86
2022/11/24 07:35:56;;;;;;;0.13;0.13;;;5.50;99.90;;;;;;5040609;28;20127;-88
2022/11/24 07:38:26;;;;;;;0.55;0.40;;;5.40;99.90;;;;;;5021091;28;20499;-87
2022/11/24 07:41:02;;;;;;;0.85;0.10;;;6.70;99.90;;;;;;5021306;28;20053;-88
2022/11/24 07:43:37;;;;;;;0.40;0.40;;;5.50;99.90;;;;;;5037082;28;20106;-87
2022/11/24 07:46:07;;;;;;;0.20;0.20;;;5.40;99.90;;;;;;5020429;28;20037;-92
2022/11/24 07:48:33;;;;;;;0.30;0.30;;;5.50;99.90;;;;;;5037586;28;20051;-88
2022/11/24 07:51:22;;;;;;;0.10;0.10;;;5.50;99.90;;;;;;5038894;28;20131;-90
2022/11/24 07:53:53;;;;;;;0.52;0.20;;;5.50;99.90;;;;;;5020468;28;20509;-88
2022/11/24 07:56:35;;;;;;;0.10;0.10;;;5.40;99.90;;;;;;5004686;28;20045;-88
2022/11/24 07:59:04;;;;;;;0.00;0.00;;;6.00;99.90;;;;;;5021467;28;20080;-87
2022/11/24 08:01:38;;;;;;;0.30;0.30;;;5.50;99.90;;;;;;5018783;28;20060;-89
2022/11/24 08:04:08;;;;;;;0.80;0.10;;;5.40;99.90;;;;;;5004612;28;20103;-88
2022/11/24 08:06:59;;;;;;;1.55;0.75;;;5.50;99.90;;;;;;5020041;28;20052;-88
2022/11/24 08:09:40;;;;;;;;;;;;;;;;;;;;;
2022/11/24 08:12:16;;;;;;;0.00;0.00;;;5.50;99.90;;;;;;5036403;28;20145;-88
2022/11/24 08:14:42;;;;;;;0.30;0.10;;;5.50;99.90;;;;;;5020428;28;20036;-88
2022/11/24 08:17:23;;;;;;;;;;;;;;;;;;;;;
2022/11/24 08:19:52;;;;;;;0.40;0.35;;;5.60;99.90;;;;;;5036848;28;20045;-88
2022/11/24 08:22:42;;;;;;;0.05;0.05;;;5.70;99.90;;;;;;5019828;28;20044;-90
2022/11/24 08:25:25;;;;;;;0.52;0.10;;;5.80;99.90;;;;;;5037401;28;20045;-88
2022/11/24 08:27:54;;;;;;;0.95;0.38;;;5.80;99.90;;;;;;5019624;28;20140;-87
2022/11/24 08:30:23;;;;;;;0.17;0.17;;;5.90;99.90;;;;;;5020828;28;20045;-88
2022/11/24 08:33:01;;;;;;;;;;;;;;;;;;;;;
2022/11/24 08:35:37;;;;;;;0.20;0.13;;;6.10;99.90;;;;;;5036474;28;20057;-90
2022/11/24 08:38:15;;;;;;;;;;;;;;;;;;;;;
2022/11/24 08:40:47;;;;;;;0.52;0.30;;;6.20;99.90;;;;;;5041525;28;20044;-87
2022/11/24 08:43:23;;;;;;;0.65;0.20;;;6.30;99.90;;;;;;5039750;28;20143;-90
2022/11/24 08:45:52;;;;;;;0.08;0.08;;;6.40;99.90;;;;;;5022863;28;20051;-88
2022/11/24 08:48:20;;;;;;;0.30;0.10;;;6.50;99.90;;;;;;5039729;28;20067;-89
2022/11/24 08:50:51;;;;;;;0.20;0.20;;;6.50;99.90;;;;;;5055627;28;20055;-89
2022/11/24 08:53:20;;;;;;;0.20;0.20;;;6.40;99.90;;;;;;5022955;28;20052;-87
2022/11/24 08:55:53;;;;;;;0.55;0.20;;;6.50;99.90;;;;;;5039092;28;20059;-88
2022/11/24 08:58:18;;;;;;;0.13;0.13;;;8.10;99.90;;;;;;5039093;28;20464;-87
2022/11/24 09:00:47;;;;;;;0.10;0.10;;;6.70;99.90;;;;;;5039458;28;20088;-88
2022/11/24 09:03:16;;;;;;;0.25;0.10;;;8.20;99.90;;;;;;5022890;28;20094;-87
2022/11/24 09:05:54;;;;;;;0.45;0.20;;;6.00;99.90;;;;;;5038990;28;20051;-86
2022/11/24 09:08:31;;;;;;;0.75;0.20;;;7.00;99.90;;;;;;5039404;28;20040;-87
2022/11/24 09:11:30;;;;;;;;;;;;;;;;;;;;;
2022/11/24 09:14:04;;;;;;;0.10;0.00;;;7.20;99.90;;;;;;5055689;28;20054;-86
2022/11/24 09:16:33;;;;;;;1.17;0.20;;;7.30;99.90;;;;;;5022732;28;20124;-86
2022/11/24 09:19:21;;;;;;;0.32;0.15;;;8.10;99.90;;;;;;5039002;28;20553;-86
2022/11/24 09:21:49;;;;;;;0.38;0.17;;;7.40;99.90;;;;;;5055577;28;20130;-86
2022/11/24 09:24:17;;;;;;;0.43;0.30;;;7.50;99.90;;;;;;5038746;28;20048;-86
2022/11/24 09:26:55;;;;;;;0.03;0.03;;;7.50;99.90;;;;;;5055337;28;20076;-87
2022/11/24 09:29:23;;;;;;;0.10;0.10;;;7.70;99.90;;;;;;5038964;28;20094;-86
2022/11/24 09:31:49;;;;;;;0.32;0.20;;;7.80;99.90;;;;;;5038762;28;20044;-86
2022/11/24 09:34:20;;;;;;;1.40;0.20;;;7.80;99.90;;;;;;5038640;28;20036;-85
2022/11/24 09:36:50;;;;;;;0.00;0.00;;;7.80;99.90;;;;;;5048266;28;20053;-87
2022/11/24 09:39:33;;;;;;;0.22;0.13;;;8.00;99.90;;;;;;5035236;28;20229;-87
2022/11/24 09:42:32;;;;;;;1.13;0.22;;;8.00;99.90;;;;;;5018306;28;20049;-88
2022/11/24 09:46:00;;;;;;;;;;;;;;;;;;;;;
2022/11/24 09:48:40;;;;;;;0.40;0.20;;;8.10;99.90;;;;;;5007601;28;20057;-87
2022/11/24 09:51:20;;;;;;;;;;;;;;;;;;;;;
2022/11/24 09:54:16;;;;;;;0.55;0.40;;;7.80;99.90;;;;;;5035038;28;20045;-88
2022/11/24 09:56:47;;;;;;;0.00;0.00;;;8.90;99.90;;;;;;5036516;28;20056;-87
2022/11/24 09:59:19;;;;;;;0.20;0.17;;;9.10;99.90;;;;;;5014641;28;20411;-87
2022/11/24 10:02:01;;;;;;;;;;;;;;;;;;;;;
2022/11/24 10:04:47;;;;;;;1.10;0.10;;;8.80;99.90;;;;;;5035051;28;20091;-90
2022/11/24 10:07:43;;;;;;;;;;;;;;;;;;;;;
2022/11/24 10:10:19;;;;;;;0.43;0.30;;;10.10;99.90;;;;;;5034617;28;20053;-90
2022/11/24 10:13:16;;;;;;;0.23;0.23;;;10.40;99.90;;;;;;5018862;28;20115;-90
2022/11/24 10:15:57;;;;;;;0.00;0.00;;;10.40;99.90;;;;;;5017829;28;20288;-87
2022/11/24 10:18:46;;;;;;;0.10;0.10;;;10.60;99.90;;;;;;5034872;28;20053;-91
2022/11/24 10:21:57;;;;;;;0.20;0.20;;;10.70;99.90;;;;;;5018371;28;20052;-92
2022/11/24 10:24:42;;;;;;;0.10;0.10;;;10.70;99.90;;;;;;5023847;28;20144;-91
2022/11/24 10:27:20;;;;;;;0.30;0.28;;;10.90;99.90;;;;;;5018676;28;20136;-92
2022/11/24 10:29:55;;;;;;;0.75;0.75;;;11.20;99.90;;;;;;5018807;28;20488;-91
2022/11/24 10:32:49;;;;;;;;;;;;;;;;;;;;;
2022/11/24 10:35:44;;;;;;;0.25;0.00;;;11.20;99.90;;;;;;5034601;28;20049;-91
2022/11/24 10:38:36;;;;;;;0.30;0.10;;;11.20;99.90;;;;;;5052082;28;20049;-90
2022/11/24 10:41:37;;;;;;;0.25;0.20;;;11.30;99.90;;;;;;5038404;28;20179;-90
2022/11/24 10:44:14;;;;;;;0.00;0.00;;;10.30;99.90;;;;;;5037666;28;20052;-95
2022/11/24 10:46:53;;;;;;;;;;;;;;;;;;;;;
2022/11/24 10:50:11;;;;;;;0.00;0.00;;;10.40;99.90;;;;;;5072284;28;20041;-89
2022/11/24 10:56:43;;;;;;;0.55;0.22;;;9.80;99.90;;;;;;5053399;28;20055;-91
2022/11/24 10:59:38;;;;;;;0.20;0.20;;;9.60;99.90;;;;;;5045915;28;20083;-84
2022/11/24 11:02:59;;;;;;;0.20;0.20;;;9.50;99.90;;;;;;5040325;28;20060;-91
2022/11/24 11:05:54;;;;;;;;;;;;;;;;;;;;;
2022/11/24 11:08:44;;;;;;;;;;;;;;;;;;;;;
2022/11/24 11:11:45;;;;;;;;;;;;;;;;;;;;;
2022/11/24 11:14:35;;;;;;;0.40;0.20;;;9.60;99.90;;;;;;5053631;28;20052;-89
2022/11/24 11:17:26;;;;;;;0.10;0.10;;;9.70;99.90;;;;;;5037850;28;20045;-88
2022/11/24 11:20:38;;;;;;;0.90;0.73;;;10.00;99.90;;;;;;5041642;28;20514;-89
2022/11/24 11:23:33;;;;;;;0.25;0.20;;;10.40;99.90;;;;;;5049626;28;20052;-86
2022/11/24 11:26:41;;;;;;;0.15;0.15;;;10.00;99.90;;;;;;5058541;28;20063;-90
2022/11/24 11:29:45;;;;;;;0.73;0.15;;;11.30;99.90;;;;;;5037645;28;20198;-92
2022/11/24 11:32:27;;;;;;;0.60;0.25;;;10.60;99.90;;;;;;5041033;28;20059;-91
2022/11/24 11:38:31;;;;;;;0.00;0.00;;;10.80;99.90;;;;;;5057206;28;20070;-91
2022/11/24 11:41:33;;;;;;;0.10;0.10;;;11.90;99.90;;;;;;5045093;28;20122;-90
2022/11/24 11:44:58;;;;;;;0.40;0.40;;;11.60;99.90;;;;;;5041142;28;20138;-94
2022/11/24 11:48:06;;;;;;;0.00;0.00;;;12.20;99.90;;;;;;5056686;28;20052;-90
2022/11/24 11:50:55;;;;;;;0.55;0.20;;;12.50;99.90;;;;;;5040667;28;20130;-89
2022/11/24 11:54:09;;;;;;;;;;;;;;;;;;;;;
2022/11/24 12:04:09;;;;;;;;;;;12.90;99.90;;;;;;4984267;28;20093;-92
2022/11/24 12:14:30;;;;;;;;;;;;;;;;;;;;;
2022/11/24 12:20:31;;;;;;;0.20;0.20;;;13.00;99.90;;;;;;5056978;28;20048;-93
2022/11/24 12:23:08;;;;;;;;;;;13.20;99.90;;;;;;5029494;28;20056;-93
2022/11/24 12:25:51;;;;;;;0.57;0.22;;;13.40;99.90;;;;;;5042211;28;19927;-92
2022/11/24 12:28:56;;;;;;;0.15;0.10;;;13.20;99.90;;;;;;5041209;28;20044;-93
2022/11/24 12:31:56;;;;;;;0.75;0.30;;;13.30;99.90;;;;;;5040737;28;20059;-93
2022/11/24 12:35:40;;;;;;;;;;;;;;;;;;;;;
2022/11/24 12:38:32;;;;;;;;;;;;;;;;;;;;;
2022/11/24 12:45:12;;;;;;;;;;;;;;;;;;;;;
2022/11/24 12:48:15;;;;;;;0.25;0.20;;;13.60;99.90;;;;;;5037687;28;20060;-93
2022/11/24 12:51:23;;;;;;;;;;;;;;;;;;;;;
2022/11/24 12:54:06;;;;;;;;;;;14.00;99.90;;;;;;5037734;28;20056;-93
2022/11/24 12:56:53;;;;;;;0.15;0.10;;;14.10;99.90;;;;;;5037347;28;20161;-93
2022/11/24 13:00:11;;;;;;;;;;;;;;;;;;;;;
2022/11/24 13:03:43;;;;;;;0.45;0.00;;;14.90;99.90;;;;;;5043960;28;20143;-93
2022/11/24 13:07:06;;;;;;;;;;;;;;;;;;;;;
2022/11/24 13:10:11;;;;;;;0.20;0.13;;;13.60;99.90;;;;;;5036036;28;20041;-93
2022/11/24 13:13:56;;;;;;;0.30;0.20;;;14.20;99.90;;;;;;5031325;28;20084;-93
2022/11/24 13:16:57;;;;;;;;;;;;;;;;;;;;;
2022/11/24 13:23:49;;;;;;;0.10;0.10;;;14.30;99.90;;;;;;4963235;28;20046;-94
2022/11/24 13:27:23;;;;;;;;;;;;;;;;;;;;;
2022/11/24 13:30:39;;;;;;;0.10;0.10;;;14.10;99.90;;;;;;5036521;28;19925;-93
2022/11/24 13:38:06;;;;;;;;;;;;;;;;;;;;;
2022/11/24 13:41:16;;;;;;;;;;;;;;;;;;;;;
2022/11/24 13:44:27;;;;;;;;;;;;;;;;;;;;;
2022/11/24 13:47:20;;;;;;;;;;;;;;;;;;;;;
2022/11/24 13:54:22;;;;;;;;;;;;;;;;;;;;;
2022/11/24 13:57:26;;;;;;;0.10;0.10;;;12.60;99.90;;;;;;4956839;28;20126;-94
2022/11/24 14:08:03;;;;;;;;;;;;;;;;;;;;;
2022/11/24 14:11:27;;;;;;;;;;;;;;;;;;;;;
2022/11/24 14:14:46;;;;;;;0.15;0.15;;;11.70;99.90;;;;;;4937067;28;20063;-94
2022/11/24 14:27:43;;;;;;;;;;;;;;;;;;;;;
2022/11/24 14:33:58;;;;;;;;;;;;;;;;;;;;;
2022/11/24 14:40:04;;;;;;;0.10;0.10;;;11.40;99.90;;;;;;5041673;28;20560;-92
2022/11/24 14:49:34;;;;;;;0.77;0.27;;;11.00;99.90;;;;;;5048497;28;20052;-93
2022/11/24 14:52:48;;;;;;;;;;;;;;;;;;;;;
2022/11/24 14:55:39;;;;;;;0.40;0.40;;;11.20;99.90;;;;;;5054186;28;20045;-93
2022/11/24 14:58:53;;;;;;;;;;;;;;;;;;;;;
2022/11/24 15:05:08;;;;;;;;;;;;;;;;;;;;;
2022/11/24 15:21:46;;;;;;;0.30;0.10;;;9.10;99.90;;;;;;5049347;28;20110;-92
2022/11/24 15:31:46;;;;;;;;;;;;;;;;;;;;;
2022/11/24 15:43:12;;;;;;;;;;;;;;;;;;;;;
2022/11/24 15:46:23;;;;;;;0.30;0.30;;;9.20;99.90;;;;;;4958843;28;20584;-93
2022/11/24 15:49:19;;;;;;;0.15;0.15;;;9.30;99.90;;;;;;4953571;28;20062;-92
2022/11/24 15:52:22;;;;;;;;;;;;;;;;;;;;;
2022/11/24 15:55:32;;;;;;;0.65;0.65;;;9.10;99.90;;;;;;4945024;28;20047;-94
2022/11/24 15:58:45;;;;;;;;;;;;;;;;;;;;;
2022/11/24 16:01:49;;;;;;;;;;;;;;;;;;;;;
2022/11/24 16:04:44;;;;;;;;;;;;;;;;;;;;;
2022/11/24 16:07:21;;;;;;;0.30;0.30;;;9.00;99.90;;;;;;5025029;28;20048;-93
2022/11/24 16:10:29;;;;;;;;;;;;;;;;;;;;;
2022/11/24 16:16:32;;;;;;;0.75;0.30;;;8.60;99.90;;;;;;5038291;28;20107;-92
2022/11/24 16:22:52;;;;;;;;;;;;;;;;;;;;;
2022/11/24 16:25:43;;;;;;;;;;;;;;;;;;;;;
2022/11/24 16:28:49;;;;;;;;;;;;;;;;;;;;;
2022/11/24 16:31:49;;;;;;;;;;;;;;;;;;;;;
2022/11/24 16:34:50;;;;;;;0.30;0.30;;;8.00;99.90;;;;;;5013869;28;20054;-92
2022/11/24 16:37:57;;;;;;;;;;;;;;;;;;;;;
2022/11/24 16:40:55;;;;;;;1.15;0.30;;;8.20;99.90;;;;;;5013949;28;20058;-92
2022/11/24 16:43:55;;;;;;;;;;;;;;;;;;;;;
2022/11/24 16:46:54;;;;;;;0.13;0.05;;;8.70;99.90;;;;;;4995771;28;20140;-92
2022/11/24 16:50:08;;;;;;;;;;;;;;;;;;;;;
2022/11/24 16:53:02;;;;;;;;;;;;;;;;;;;;;
2022/11/24 16:56:10;;;;;;;0.20;0.20;;;7.50;99.90;;;;;;4976038;28;20098;-92
2022/11/24 16:59:21;;;;;;;;;;;;;;;;;;;;;
2022/11/24 17:02:40;;;;;;;0.13;0.13;;;7.90;99.90;;;;;;5000183;28;20058;-92
2022/11/24 17:05:38;;;;;;;0.52;0.52;;;8.40;99.90;;;;;;5037156;28;20052;-92
2022/11/24 17:08:17;;;;;;;0.80;0.30;;;7.80;99.90;;;;;;5019603;28;20048;-93
2022/11/24 17:11:13;;;;;;;;;;;;;;;;;;;;;
2022/11/24 17:17:01;;;;;;;;;;;;;;;;;;;;;
2022/11/24 17:19:48;;;;;;;0.30;0.22;;;7.80;99.90;;;;;;5009170;28;20140;-92
2022/11/24 17:22:48;;;;;;;;;;;;;;;;;;;;;
2022/11/24 17:25:47;;;;;;;;;;;;;;;;;;;;;
2022/11/24 17:28:54;;;;;;;0.50;0.38;;;7.80;99.90;;;;;;5021978;28;20057;-92
2022/11/24 17:34:29;;;;;;;0.30;0.30;;;7.80;99.90;;;;;;4993874;28;20083;-92
2022/11/24 17:37:08;;;;;;;0.30;0.20;;;6.90;99.90;;;;;;5019991;28;20135;-92
2022/11/24 17:40:21;;;;;;;;;;;;;;;;;;;;;